sensor_id;sensor_type;location;lat;lon;timestamp;P1;P2;P0
73517;PMS5003;61766;60.318;25.044;2023-08-12T00:01:40;8;7;
73517;PMS5003;61766;60.318;25.044;2023-08-12T00:04:06;8;8;
73517;PMS5003;61766;60.318;25.044;2023-08-12T00:06:32;7;6;
73517;PMS5003;61766;60.318;25.044;2023-08-12T00:08:58;8;8;
73517;PMS5003;61766;60.318;25.044;2023-08-12T00:11:23;5;5;
73517;PMS5003;61766;60.318;25.044;2023-08-12T00:13:49;7;6;
73517;PMS5003;61766;60.318;25.044;2023-08-12T00:16:15;8;8;
73517;PMS5003;61766;60.318;25.044;2023-08-12T00:18:41;8;7;
73517;PMS5003;61766;60.318;25.044;2023-08-12T00:21:07;5;5;
73517;PMS5003;61766;60.318;25.044;2023-08-12T00:23:32;8;7;
73517;PMS5003;61766;60.318;25.044;2023-08-12T00:25:58;7;7;
73517;PMS5003;61766;60.318;25.044;2023-08-12T00:28:24;8;6;
73517;PMS5003;61766;60.318;25.044;2023-08-12T00:30:50;4;4;
73517;PMS5003;61766;60.318;25.044;2023-08-12T00:33:16;6;5;
73517;PMS5003;61766;60.318;25.044;2023-08-12T00:35:41;4;3;
73517;PMS5003;61766;60.318;25.044;2023-08-12T00:38:07;5;5;
73517;PMS5003;61766;60.318;25.044;2023-08-12T00:40:33;7;7;
73517;PMS5003;61766;60.318;25.044;2023-08-12T00:42:59;5;5;
73517;PMS5003;61766;60.318;25.044;2023-08-12T00:45:25;5;4;
73517;PMS5003;61766;60.318;25.044;2023-08-12T00:47:51;5;5;
73517;PMS5003;61766;60.318;25.044;2023-08-12T00:50:16;6;5;
73517;PMS5003;61766;60.318;25.044;2023-08-12T00:52:42;7;6;
73517;PMS5003;61766;60.318;25.044;2023-08-12T00:55:08;5;5;
73517;PMS5003;61766;60.318;25.044;2023-08-12T00:57:34;5;5;
73517;PMS5003;61766;60.318;25.044;2023-08-12T01:00:00;6;6;
73517;PMS5003;61766;60.318;25.044;2023-08-12T01:02:25;7;5;
73517;PMS5003;61766;60.318;25.044;2023-08-12T01:04:51;5;5;
73517;PMS5003;61766;60.318;25.044;2023-08-12T01:07:17;6;5;
73517;PMS5003;61766;60.318;25.044;2023-08-12T01:09:43;4;4;
73517;PMS5003;61766;60.318;25.044;2023-08-12T01:12:11;4;4;
73517;PMS5003;61766;60.318;25.044;2023-08-12T01:14:35;4;4;
73517;PMS5003;61766;60.318;25.044;2023-08-12T01:17:01;4;4;
73517;PMS5003;61766;60.318;25.044;2023-08-12T01:19:29;6;6;
73517;PMS5003;61766;60.318;25.044;2023-08-12T01:21:52;3;3;
73517;PMS5003;61766;60.318;25.044;2023-08-12T01:24:19;5;5;
73517;PMS5003;61766;60.318;25.044;2023-08-12T01:26:44;4;4;
73517;PMS5003;61766;60.318;25.044;2023-08-12T01:29:09;4;4;
73517;PMS5003;61766;60.318;25.044;2023-08-12T01:31:37;4;4;
73517;PMS5003;61766;60.318;25.044;2023-08-12T01:34:02;4;4;
73517;PMS5003;61766;60.318;25.044;2023-08-12T01:36:27;6;5;
73517;PMS5003;61766;60.318;25.044;2023-08-12T01:38:53;6;5;
73517;PMS5003;61766;60.318;25.044;2023-08-12T01:41:19;5;5;
73517;PMS5003;61766;60.318;25.044;2023-08-12T01:43:44;4;4;
73517;PMS5003;61766;60.318;25.044;2023-08-12T01:46:10;5;5;
73517;PMS5003;61766;60.318;25.044;2023-08-12T01:48:36;4;3;
73517;PMS5003;61766;60.318;25.044;2023-08-12T01:51:02;9;8;
73517;PMS5003;61766;60.318;25.044;2023-08-12T01:53:27;8;8;
73517;PMS5003;61766;60.318;25.044;2023-08-12T01:55:52;4;4;
73517;PMS5003;61766;60.318;25.044;2023-08-12T01:58:18;4;4;
73517;PMS5003;61766;60.318;25.044;2023-08-12T02:00:44;3;3;
73517;PMS5003;61766;60.318;25.044;2023-08-12T02:03:10;3;3;
73517;PMS5003;61766;60.318;25.044;2023-08-12T02:05:36;7;5;
73517;PMS5003;61766;60.318;25.044;2023-08-12T02:08:01;6;6;
73517;PMS5003;61766;60.318;25.044;2023-08-12T02:10:27;7;6;
73517;PMS5003;61766;60.318;25.044;2023-08-12T02:12:53;5;5;
73517;PMS5003;61766;60.318;25.044;2023-08-12T02:15:19;6;5;
73517;PMS5003;61766;60.318;25.044;2023-08-12T02:17:45;6;6;
73517;PMS5003;61766;60.318;25.044;2023-08-12T02:20:11;6;6;
73517;PMS5003;61766;60.318;25.044;2023-08-12T02:22:36;3;3;
73517;PMS5003;61766;60.318;25.044;2023-08-12T02:25:02;3;3;
73517;PMS5003;61766;60.318;25.044;2023-08-12T02:27:28;6;6;
73517;PMS5003;61766;60.318;25.044;2023-08-12T02:29:54;4;4;
73517;PMS5003;61766;60.318;25.044;2023-08-12T02:32:20;6;5;
73517;PMS5003;61766;60.318;25.044;2023-08-12T02:34:46;4;4;
73517;PMS5003;61766;60.318;25.044;2023-08-12T02:37:11;4;4;
73517;PMS5003;61766;60.318;25.044;2023-08-12T02:39:37;5;4;
73517;PMS5003;61766;60.318;25.044;2023-08-12T02:42:03;5;5;
73517;PMS5003;61766;60.318;25.044;2023-08-12T02:44:29;4;4;
73517;PMS5003;61766;60.318;25.044;2023-08-12T02:46:55;4;4;
73517;PMS5003;61766;60.318;25.044;2023-08-12T02:49:21;7;6;
73517;PMS5003;61766;60.318;25.044;2023-08-12T02:51:47;4;4;
73517;PMS5003;61766;60.318;25.044;2023-08-12T02:54:12;3;3;
73517;PMS5003;61766;60.318;25.044;2023-08-12T02:56:38;5;5;
73517;PMS5003;61766;60.318;25.044;2023-08-12T02:59:04;5;4;
73517;PMS5003;61766;60.318;25.044;2023-08-12T03:01:30;3;3;
73517;PMS5003;61766;60.318;25.044;2023-08-12T03:03:55;5;4;
73517;PMS5003;61766;60.318;25.044;2023-08-12T03:06:21;4;4;
73517;PMS5003;61766;60.318;25.044;2023-08-12T03:08:47;4;4;
73517;PMS5003;61766;60.318;25.044;2023-08-12T03:11:13;4;3;
73517;PMS5003;61766;60.318;25.044;2023-08-12T03:13:39;3;2;
73517;PMS5003;61766;60.318;25.044;2023-08-12T03:16:07;5;3;
73517;PMS5003;61766;60.318;25.044;2023-08-12T03:18:31;3;3;
73517;PMS5003;61766;60.318;25.044;2023-08-12T03:20:56;5;5;
73517;PMS5003;61766;60.318;25.044;2023-08-12T03:23:22;1;1;
73517;PMS5003;61766;60.318;25.044;2023-08-12T03:25:48;4;4;
73517;PMS5003;61766;60.318;25.044;2023-08-12T03:28:14;4;3;
73517;PMS5003;61766;60.318;25.044;2023-08-12T03:30:40;5;3;
73517;PMS5003;61766;60.318;25.044;2023-08-12T03:33:06;6;5;
73517;PMS5003;61766;60.318;25.044;2023-08-12T03:35:31;4;4;
73517;PMS5003;61766;60.318;25.044;2023-08-12T03:37:57;5;5;
73517;PMS5003;61766;60.318;25.044;2023-08-12T03:40:23;3;3;
73517;PMS5003;61766;60.318;25.044;2023-08-12T03:42:49;4;4;
73517;PMS5003;61766;60.318;25.044;2023-08-12T03:45:15;3;3;
73517;PMS5003;61766;60.318;25.044;2023-08-12T03:47:41;4;4;
73517;PMS5003;61766;60.318;25.044;2023-08-12T03:50:07;3;3;
73517;PMS5003;61766;60.318;25.044;2023-08-12T03:52:32;6;4;
73517;PMS5003;61766;60.318;25.044;2023-08-12T03:54:58;3;3;
73517;PMS5003;61766;60.318;25.044;2023-08-12T03:57:24;6;6;
73517;PMS5003;61766;60.318;25.044;2023-08-12T03:59:49;6;5;
73517;PMS5003;61766;60.318;25.044;2023-08-12T04:02:15;3;3;
73517;PMS5003;61766;60.318;25.044;2023-08-12T04:04:41;6;5;
73517;PMS5003;61766;60.318;25.044;2023-08-12T04:07:07;4;3;
73517;PMS5003;61766;60.318;25.044;2023-08-12T04:09:32;5;5;
73517;PMS5003;61766;60.318;25.044;2023-08-12T04:11:58;5;5;
73517;PMS5003;61766;60.318;25.044;2023-08-12T04:14:24;5;4;
73517;PMS5003;61766;60.318;25.044;2023-08-12T04:16:50;5;5;
73517;PMS5003;61766;60.318;25.044;2023-08-12T04:19:16;5;5;
73517;PMS5003;61766;60.318;25.044;2023-08-12T04:21:42;7;5;
73517;PMS5003;61766;60.318;25.044;2023-08-12T04:24:08;5;5;
73517;PMS5003;61766;60.318;25.044;2023-08-12T04:26:33;4;4;
73517;PMS5003;61766;60.318;25.044;2023-08-12T04:28:59;6;6;
73517;PMS5003;61766;60.318;25.044;2023-08-12T04:31:25;4;4;
73517;PMS5003;61766;60.318;25.044;2023-08-12T04:33:51;7;7;
73517;PMS5003;61766;60.318;25.044;2023-08-12T04:36:17;5;5;
73517;PMS5003;61766;60.318;25.044;2023-08-12T04:38:42;5;4;
73517;PMS5003;61766;60.318;25.044;2023-08-12T04:41:08;6;6;
73517;PMS5003;61766;60.318;25.044;2023-08-12T04:43:34;4;4;
73517;PMS5003;61766;60.318;25.044;2023-08-12T04:46:00;6;6;
73517;PMS5003;61766;60.318;25.044;2023-08-12T04:48:26;5;5;
73517;PMS5003;61766;60.318;25.044;2023-08-12T04:50:51;5;5;
73517;PMS5003;61766;60.318;25.044;2023-08-12T04:53:17;4;4;
73517;PMS5003;61766;60.318;25.044;2023-08-12T04:55:43;5;5;
73517;PMS5003;61766;60.318;25.044;2023-08-12T04:58:09;4;4;
73517;PMS5003;61766;60.318;25.044;2023-08-12T05:00:35;5;5;
73517;PMS5003;61766;60.318;25.044;2023-08-12T05:03:00;6;6;
73517;PMS5003;61766;60.318;25.044;2023-08-12T05:05:26;5;5;
73517;PMS5003;61766;60.318;25.044;2023-08-12T05:07:52;5;5;
73517;PMS5003;61766;60.318;25.044;2023-08-12T05:10:18;5;5;
73517;PMS5003;61766;60.318;25.044;2023-08-12T05:12:44;5;5;
73517;PMS5003;61766;60.318;25.044;2023-08-12T05:15:09;4;3;
73517;PMS5003;61766;60.318;25.044;2023-08-12T05:17:35;4;3;
73517;PMS5003;61766;60.318;25.044;2023-08-12T05:20:01;4;4;
73517;PMS5003;61766;60.318;25.044;2023-08-12T05:22:26;4;4;
73517;PMS5003;61766;60.318;25.044;2023-08-12T05:24:52;3;3;
73517;PMS5003;61766;60.318;25.044;2023-08-12T05:27:18;2;1;
73517;PMS5003;61766;60.318;25.044;2023-08-12T05:29:44;2;2;
73517;PMS5003;61766;60.318;25.044;2023-08-12T05:32:09;5;3;
73517;PMS5003;61766;60.318;25.044;2023-08-12T05:34:35;4;3;
73517;PMS5003;61766;60.318;25.044;2023-08-12T05:37:01;5;4;
73517;PMS5003;61766;60.318;25.044;2023-08-12T05:39:27;4;3;
73517;PMS5003;61766;60.318;25.044;2023-08-12T05:41:52;4;3;
73517;PMS5003;61766;60.318;25.044;2023-08-12T05:44:18;4;3;
73517;PMS5003;61766;60.318;25.044;2023-08-12T05:46:44;2;2;
73517;PMS5003;61766;60.318;25.044;2023-08-12T05:49:09;2;2;
73517;PMS5003;61766;60.318;25.044;2023-08-12T05:51:35;4;4;
73517;PMS5003;61766;60.318;25.044;2023-08-12T05:54:01;3;3;
73517;PMS5003;61766;60.318;25.044;2023-08-12T05:56:27;2;2;
73517;PMS5003;61766;60.318;25.044;2023-08-12T05:58:52;2;2;
73517;PMS5003;61766;60.318;25.044;2023-08-12T06:01:18;4;3;
73517;PMS5003;61766;60.318;25.044;2023-08-12T06:03:44;2;2;
73517;PMS5003;61766;60.318;25.044;2023-08-12T06:06:09;2;2;
73517;PMS5003;61766;60.318;25.044;2023-08-12T06:08:35;3;2;
73517;PMS5003;61766;60.318;25.044;2023-08-12T06:11:00;2;2;
73517;PMS5003;61766;60.318;25.044;2023-08-12T06:13:26;3;2;
73517;PMS5003;61766;60.318;25.044;2023-08-12T06:15:52;2;2;
73517;PMS5003;61766;60.318;25.044;2023-08-12T06:18:17;1;1;
73517;PMS5003;61766;60.318;25.044;2023-08-12T06:20:43;2;2;
73517;PMS5003;61766;60.318;25.044;2023-08-12T06:23:09;2;2;
73517;PMS5003;61766;60.318;25.044;2023-08-12T06:25:35;4;4;
73517;PMS5003;61766;60.318;25.044;2023-08-12T06:28:00;3;2;
73517;PMS5003;61766;60.318;25.044;2023-08-12T06:30:26;5;3;
73517;PMS5003;61766;60.318;25.044;2023-08-12T06:32:52;6;5;
73517;PMS5003;61766;60.318;25.044;2023-08-12T06:35:17;1;1;
73517;PMS5003;61766;60.318;25.044;2023-08-12T06:37:43;2;2;
73517;PMS5003;61766;60.318;25.044;2023-08-12T06:40:09;2;2;
73517;PMS5003;61766;60.318;25.044;2023-08-12T06:42:34;3;3;
73517;PMS5003;61766;60.318;25.044;2023-08-12T06:45:00;2;2;
73517;PMS5003;61766;60.318;25.044;2023-08-12T06:47:26;2;2;
73517;PMS5003;61766;60.318;25.044;2023-08-12T06:49:51;1;1;
73517;PMS5003;61766;60.318;25.044;2023-08-12T06:52:17;3;3;
73517;PMS5003;61766;60.318;25.044;2023-08-12T06:54:43;3;3;
73517;PMS5003;61766;60.318;25.044;2023-08-12T06:57:08;1;1;
73517;PMS5003;61766;60.318;25.044;2023-08-12T06:59:34;1;1;
73517;PMS5003;61766;60.318;25.044;2023-08-12T07:02:00;2;2;
73517;PMS5003;61766;60.318;25.044;2023-08-12T07:04:25;2;2;
73517;PMS5003;61766;60.318;25.044;2023-08-12T07:06:51;1;1;
73517;PMS5003;61766;60.318;25.044;2023-08-12T07:09:16;2;2;
73517;PMS5003;61766;60.318;25.044;2023-08-12T07:11:42;1;1;
73517;PMS5003;61766;60.318;25.044;2023-08-12T07:14:08;1;1;
73517;PMS5003;61766;60.318;25.044;2023-08-12T07:16:33;2;2;
73517;PMS5003;61766;60.318;25.044;2023-08-12T07:18:59;3;3;
73517;PMS5003;61766;60.318;25.044;2023-08-12T07:21:25;1;1;
73517;PMS5003;61766;60.318;25.044;2023-08-12T07:23:50;3;3;
73517;PMS5003;61766;60.318;25.044;2023-08-12T07:26:16;3;2;
73517;PMS5003;61766;60.318;25.044;2023-08-12T07:28:42;2;2;
73517;PMS5003;61766;60.318;25.044;2023-08-12T07:31:08;3;2;
73517;PMS5003;61766;60.318;25.044;2023-08-12T07:33:33;4;4;
73517;PMS5003;61766;60.318;25.044;2023-08-12T07:35:59;3;2;
73517;PMS5003;61766;60.318;25.044;2023-08-12T07:38:24;1;1;
73517;PMS5003;61766;60.318;25.044;2023-08-12T07:40:50;2;2;
73517;PMS5003;61766;60.318;25.044;2023-08-12T07:43:16;2;2;
73517;PMS5003;61766;60.318;25.044;2023-08-12T07:45:41;2;2;
73517;PMS5003;61766;60.318;25.044;2023-08-12T07:48:07;2;1;
73517;PMS5003;61766;60.318;25.044;2023-08-12T07:50:33;2;2;
73517;PMS5003;61766;60.318;25.044;2023-08-12T07:52:58;5;4;
73517;PMS5003;61766;60.318;25.044;2023-08-12T07:55:24;1;1;
73517;PMS5003;61766;60.318;25.044;2023-08-12T07:57:49;3;2;
73517;PMS5003;61766;60.318;25.044;2023-08-12T08:00:15;2;1;
73517;PMS5003;61766;60.318;25.044;2023-08-12T08:02:41;1;1;
73517;PMS5003;61766;60.318;25.044;2023-08-12T08:05:07;2;2;
73517;PMS5003;61766;60.318;25.044;2023-08-12T08:07:32;3;3;
73517;PMS5003;61766;60.318;25.044;2023-08-12T08:09:57;2;2;
73517;PMS5003;61766;60.318;25.044;2023-08-12T08:12:23;3;3;
73517;PMS5003;61766;60.318;25.044;2023-08-12T08:14:49;2;2;
73517;PMS5003;61766;60.318;25.044;2023-08-12T08:17:14;3;3;
73517;PMS5003;61766;60.318;25.044;2023-08-12T08:19:40;3;3;
73517;PMS5003;61766;60.318;25.044;2023-08-12T08:22:05;2;2;
73517;PMS5003;61766;60.318;25.044;2023-08-12T08:24:31;2;2;
73517;PMS5003;61766;60.318;25.044;2023-08-12T08:26:57;1;1;
73517;PMS5003;61766;60.318;25.044;2023-08-12T08:29:23;2;2;
73517;PMS5003;61766;60.318;25.044;2023-08-12T08:31:48;2;1;
73517;PMS5003;61766;60.318;25.044;2023-08-12T08:34:14;3;2;
73517;PMS5003;61766;60.318;25.044;2023-08-12T08:36:40;2;2;
73517;PMS5003;61766;60.318;25.044;2023-08-12T08:39:05;4;2;
73517;PMS5003;61766;60.318;25.044;2023-08-12T08:41:31;2;2;
73517;PMS5003;61766;60.318;25.044;2023-08-12T08:43:57;2;2;
73517;PMS5003;61766;60.318;25.044;2023-08-12T08:46:22;2;2;
73517;PMS5003;61766;60.318;25.044;2023-08-12T08:48:48;2;2;
73517;PMS5003;61766;60.318;25.044;2023-08-12T08:51:14;3;3;
73517;PMS5003;61766;60.318;25.044;2023-08-12T08:53:40;2;2;
73517;PMS5003;61766;60.318;25.044;2023-08-12T08:56:05;1;1;
73517;PMS5003;61766;60.318;25.044;2023-08-12T08:58:31;1;1;
73517;PMS5003;61766;60.318;25.044;2023-08-12T09:00:56;2;2;
73517;PMS5003;61766;60.318;25.044;2023-08-12T09:03:22;2;2;
73517;PMS5003;61766;60.318;25.044;2023-08-12T09:05:48;3;2;
73517;PMS5003;61766;60.318;25.044;2023-08-12T09:08:13;3;2;
73517;PMS5003;61766;60.318;25.044;2023-08-12T09:10:39;2;2;
73517;PMS5003;61766;60.318;25.044;2023-08-12T09:13:05;3;3;
73517;PMS5003;61766;60.318;25.044;2023-08-12T09:15:31;4;3;
73517;PMS5003;61766;60.318;25.044;2023-08-12T09:17:56;2;1;
73517;PMS5003;61766;60.318;25.044;2023-08-12T09:20:22;2;2;
73517;PMS5003;61766;60.318;25.044;2023-08-12T09:22:49;3;2;
73517;PMS5003;61766;60.318;25.044;2023-08-12T09:25:13;2;2;
73517;PMS5003;61766;60.318;25.044;2023-08-12T09:27:39;3;3;
73517;PMS5003;61766;60.318;25.044;2023-08-12T09:30:05;2;2;
73517;PMS5003;61766;60.318;25.044;2023-08-12T09:32:30;1;1;
73517;PMS5003;61766;60.318;25.044;2023-08-12T09:34:56;1;1;
73517;PMS5003;61766;60.318;25.044;2023-08-12T09:37:22;2;2;
73517;PMS5003;61766;60.318;25.044;2023-08-12T09:39:48;3;2;
73517;PMS5003;61766;60.318;25.044;2023-08-12T09:42:13;5;4;
73517;PMS5003;61766;60.318;25.044;2023-08-12T09:44:39;2;2;
73517;PMS5003;61766;60.318;25.044;2023-08-12T09:47:05;3;2;
73517;PMS5003;61766;60.318;25.044;2023-08-12T09:49:31;6;5;
73517;PMS5003;61766;60.318;25.044;2023-08-12T09:51:56;3;3;
73517;PMS5003;61766;60.318;25.044;2023-08-12T09:54:21;4;3;
73517;PMS5003;61766;60.318;25.044;2023-08-12T09:56:48;2;2;
73517;PMS5003;61766;60.318;25.044;2023-08-12T09:59:13;2;2;
73517;PMS5003;61766;60.318;25.044;2023-08-12T10:01:38;3;3;
73517;PMS5003;61766;60.318;25.044;2023-08-12T10:04:04;2;2;
73517;PMS5003;61766;60.318;25.044;2023-08-12T10:06:30;3;2;
73517;PMS5003;61766;60.318;25.044;2023-08-12T10:08:55;2;2;
73517;PMS5003;61766;60.318;25.044;2023-08-12T10:11:21;3;2;
73517;PMS5003;61766;60.318;25.044;2023-08-12T10:13:47;3;2;
73517;PMS5003;61766;60.318;25.044;2023-08-12T10:16:13;3;2;
73517;PMS5003;61766;60.318;25.044;2023-08-12T10:18:38;1;1;
73517;PMS5003;61766;60.318;25.044;2023-08-12T10:21:04;1;1;
73517;PMS5003;61766;60.318;25.044;2023-08-12T10:23:29;2;2;
73517;PMS5003;61766;60.318;25.044;2023-08-12T10:25:55;2;2;
73517;PMS5003;61766;60.318;25.044;2023-08-12T10:28:21;2;2;
73517;PMS5003;61766;60.318;25.044;2023-08-12T10:30:46;4;2;
73517;PMS5003;61766;60.318;25.044;2023-08-12T10:33:13;3;2;
73517;PMS5003;61766;60.318;25.044;2023-08-12T10:35:42;2;2;
73517;PMS5003;61766;60.318;25.044;2023-08-12T10:38:05;5;4;
73517;PMS5003;61766;60.318;25.044;2023-08-12T10:40:29;2;1;
73517;PMS5003;61766;60.318;25.044;2023-08-12T10:42:54;2;2;
73517;PMS5003;61766;60.318;25.044;2023-08-12T10:45:20;1;1;
73517;PMS5003;61766;60.318;25.044;2023-08-12T10:47:48;2;2;
73517;PMS5003;61766;60.318;25.044;2023-08-12T10:50:16;3;3;
73517;PMS5003;61766;60.318;25.044;2023-08-12T10:52:37;2;2;
73517;PMS5003;61766;60.318;25.044;2023-08-12T10:59:54;2;2;
73517;PMS5003;61766;60.318;25.044;2023-08-12T11:02:21;1;1;
73517;PMS5003;61766;60.318;25.044;2023-08-12T11:04:48;1;1;
73517;PMS5003;61766;60.318;25.044;2023-08-12T11:07:14;2;2;
73517;PMS5003;61766;60.318;25.044;2023-08-12T11:09:36;4;4;
73517;PMS5003;61766;60.318;25.044;2023-08-12T11:12:02;3;3;
73517;PMS5003;61766;60.318;25.044;2023-08-12T11:14:27;2;2;
73517;PMS5003;61766;60.318;25.044;2023-08-12T11:16:53;3;2;
73517;PMS5003;61766;60.318;25.044;2023-08-12T11:19:18;3;2;
73517;PMS5003;61766;60.318;25.044;2023-08-12T11:21:44;4;3;
73517;PMS5003;61766;60.318;25.044;2023-08-12T11:24:09;1;1;
73517;PMS5003;61766;60.318;25.044;2023-08-12T11:26:35;2;2;
73517;PMS5003;61766;60.318;25.044;2023-08-12T11:29:00;2;2;
73517;PMS5003;61766;60.318;25.044;2023-08-12T11:31:26;3;2;
73517;PMS5003;61766;60.318;25.044;2023-08-12T11:33:52;2;2;
73517;PMS5003;61766;60.318;25.044;2023-08-12T11:36:17;2;2;
73517;PMS5003;61766;60.318;25.044;2023-08-12T11:38:43;3;2;
73517;PMS5003;61766;60.318;25.044;2023-08-12T11:41:09;2;2;
73517;PMS5003;61766;60.318;25.044;2023-08-12T11:43:34;2;2;
73517;PMS5003;61766;60.318;25.044;2023-08-12T11:46:00;1;1;
73517;PMS5003;61766;60.318;25.044;2023-08-12T11:48:26;2;2;
73517;PMS5003;61766;60.318;25.044;2023-08-12T11:50:51;1;1;
73517;PMS5003;61766;60.318;25.044;2023-08-12T11:53:17;1;1;
73517;PMS5003;61766;60.318;25.044;2023-08-12T11:55:43;3;3;
73517;PMS5003;61766;60.318;25.044;2023-08-12T11:58:09;3;3;
73517;PMS5003;61766;60.318;25.044;2023-08-12T12:00:34;2;2;
73517;PMS5003;61766;60.318;25.044;2023-08-12T12:03:00;2;2;
73517;PMS5003;61766;60.318;25.044;2023-08-12T12:05:26;1;1;
73517;PMS5003;61766;60.318;25.044;2023-08-12T12:07:51;3;3;
73517;PMS5003;61766;60.318;25.044;2023-08-12T12:10:18;1;1;
73517;PMS5003;61766;60.318;25.044;2023-08-12T12:12:43;4;3;
73517;PMS5003;61766;60.318;25.044;2023-08-12T12:15:08;2;2;
73517;PMS5003;61766;60.318;25.044;2023-08-12T12:17:38;2;2;
73517;PMS5003;61766;60.318;25.044;2023-08-12T12:20:00;2;2;
73517;PMS5003;61766;60.318;25.044;2023-08-12T12:22:26;3;3;
73517;PMS5003;61766;60.318;25.044;2023-08-12T12:24:51;2;2;
73517;PMS5003;61766;60.318;25.044;2023-08-12T12:27:16;2;2;
73517;PMS5003;61766;60.318;25.044;2023-08-12T12:29:42;2;2;
73517;PMS5003;61766;60.318;25.044;2023-08-12T12:32:08;3;3;
73517;PMS5003;61766;60.318;25.044;2023-08-12T12:34:33;4;3;
73517;PMS5003;61766;60.318;25.044;2023-08-12T12:36:59;1;1;
73517;PMS5003;61766;60.318;25.044;2023-08-12T12:39:25;3;2;
73517;PMS5003;61766;60.318;25.044;2023-08-12T12:41:50;2;2;
73517;PMS5003;61766;60.318;25.044;2023-08-12T12:44:16;2;2;
73517;PMS5003;61766;60.318;25.044;2023-08-12T12:46:42;2;2;
73517;PMS5003;61766;60.318;25.044;2023-08-12T12:49:07;3;2;
73517;PMS5003;61766;60.318;25.044;2023-08-12T12:51:33;3;3;
73517;PMS5003;61766;60.318;25.044;2023-08-12T12:53:59;2;1;
73517;PMS5003;61766;60.318;25.044;2023-08-12T12:56:24;2;2;
73517;PMS5003;61766;60.318;25.044;2023-08-12T12:58:50;2;2;
73517;PMS5003;61766;60.318;25.044;2023-08-12T13:01:16;2;1;
73517;PMS5003;61766;60.318;25.044;2023-08-12T13:03:41;1;1;
73517;PMS5003;61766;60.318;25.044;2023-08-12T13:06:07;2;2;
73517;PMS5003;61766;60.318;25.044;2023-08-12T13:08:33;2;2;
73517;PMS5003;61766;60.318;25.044;2023-08-12T13:10:58;2;1;
73517;PMS5003;61766;60.318;25.044;2023-08-12T13:13:24;1;1;
73517;PMS5003;61766;60.318;25.044;2023-08-12T13:15:50;1;1;
73517;PMS5003;61766;60.318;25.044;2023-08-12T13:18:15;4;3;
73517;PMS5003;61766;60.318;25.044;2023-08-12T13:20:41;7;6;
73517;PMS5003;61766;60.318;25.044;2023-08-12T13:23:06;2;2;
73517;PMS5003;61766;60.318;25.044;2023-08-12T13:25:32;2;2;
73517;PMS5003;61766;60.318;25.044;2023-08-12T13:27:58;3;3;
73517;PMS5003;61766;60.318;25.044;2023-08-12T13:30:23;3;3;
73517;PMS5003;61766;60.318;25.044;2023-08-12T13:32:49;0;0;
73517;PMS5003;61766;60.318;25.044;2023-08-12T13:35:15;2;1;
73517;PMS5003;61766;60.318;25.044;2023-08-12T13:37:40;1;1;
73517;PMS5003;61766;60.318;25.044;2023-08-12T13:40:06;1;1;
73517;PMS5003;61766;60.318;25.044;2023-08-12T13:42:31;3;3;
73517;PMS5003;61766;60.318;25.044;2023-08-12T13:44:57;2;2;
73517;PMS5003;61766;60.318;25.044;2023-08-12T13:47:23;3;3;
73517;PMS5003;61766;60.318;25.044;2023-08-12T13:49:48;2;2;
73517;PMS5003;61766;60.318;25.044;2023-08-12T13:52:14;2;2;
73517;PMS5003;61766;60.318;25.044;2023-08-12T13:54:40;2;1;
73517;PMS5003;61766;60.318;25.044;2023-08-12T13:57:05;3;3;
73517;PMS5003;61766;60.318;25.044;2023-08-12T13:59:31;1;1;
73517;PMS5003;61766;60.318;25.044;2023-08-12T14:01:57;3;3;
73517;PMS5003;61766;60.318;25.044;2023-08-12T14:04:22;4;3;
73517;PMS5003;61766;60.318;25.044;2023-08-12T14:06:48;2;2;
73517;PMS5003;61766;60.318;25.044;2023-08-12T14:09:13;1;1;
73517;PMS5003;61766;60.318;25.044;2023-08-12T14:11:39;1;1;
73517;PMS5003;61766;60.318;25.044;2023-08-12T14:14:05;1;1;
73517;PMS5003;61766;60.318;25.044;2023-08-12T14:16:30;1;1;
73517;PMS5003;61766;60.318;25.044;2023-08-12T14:18:56;4;2;
73517;PMS5003;61766;60.318;25.044;2023-08-12T14:21:22;3;2;
73517;PMS5003;61766;60.318;25.044;2023-08-12T14:23:47;2;2;
73517;PMS5003;61766;60.318;25.044;2023-08-12T14:26:13;3;3;
73517;PMS5003;61766;60.318;25.044;2023-08-12T14:28:39;2;2;
73517;PMS5003;61766;60.318;25.044;2023-08-12T14:31:04;4;3;
73517;PMS5003;61766;60.318;25.044;2023-08-12T14:33:30;3;2;
73517;PMS5003;61766;60.318;25.044;2023-08-12T14:35:57;2;2;
73517;PMS5003;61766;60.318;25.044;2023-08-12T14:38:21;4;4;
73517;PMS5003;61766;60.318;25.044;2023-08-12T14:40:47;2;2;
73517;PMS5003;61766;60.318;25.044;2023-08-12T14:43:13;2;2;
73517;PMS5003;61766;60.318;25.044;2023-08-12T14:45:38;3;3;
73517;PMS5003;61766;60.318;25.044;2023-08-12T14:48:04;3;3;
73517;PMS5003;61766;60.318;25.044;2023-08-12T14:50:30;2;2;
73517;PMS5003;61766;60.318;25.044;2023-08-12T14:52:55;4;3;
73517;PMS5003;61766;60.318;25.044;2023-08-12T14:55:21;2;2;
73517;PMS5003;61766;60.318;25.044;2023-08-12T14:57:46;4;3;
73517;PMS5003;61766;60.318;25.044;2023-08-12T15:00:12;2;2;
73517;PMS5003;61766;60.318;25.044;2023-08-12T15:02:38;2;2;
73517;PMS5003;61766;60.318;25.044;2023-08-12T15:05:04;1;1;
73517;PMS5003;61766;60.318;25.044;2023-08-12T15:07:29;3;3;
73517;PMS5003;61766;60.318;25.044;2023-08-12T15:09:55;2;2;
73517;PMS5003;61766;60.318;25.044;2023-08-12T15:12:20;3;3;
73517;PMS5003;61766;60.318;25.044;2023-08-12T15:14:46;3;2;
73517;PMS5003;61766;60.318;25.044;2023-08-12T15:17:12;3;3;
73517;PMS5003;61766;60.318;25.044;2023-08-12T15:19:37;4;4;
73517;PMS5003;61766;60.318;25.044;2023-08-12T15:22:03;2;2;
73517;PMS5003;61766;60.318;25.044;2023-08-12T15:24:29;4;4;
73517;PMS5003;61766;60.318;25.044;2023-08-12T15:26:54;3;2;
73517;PMS5003;61766;60.318;25.044;2023-08-12T15:29:20;4;4;
73517;PMS5003;61766;60.318;25.044;2023-08-12T15:31:45;4;4;
73517;PMS5003;61766;60.318;25.044;2023-08-12T15:34:11;2;2;
73517;PMS5003;61766;60.318;25.044;2023-08-12T15:36:37;3;3;
73517;PMS5003;61766;60.318;25.044;2023-08-12T15:39:02;2;2;
73517;PMS5003;61766;60.318;25.044;2023-08-12T15:41:28;2;2;
73517;PMS5003;61766;60.318;25.044;2023-08-12T15:43:53;4;3;
73517;PMS5003;61766;60.318;25.044;2023-08-12T15:46:19;2;2;
73517;PMS5003;61766;60.318;25.044;2023-08-12T15:48:45;4;4;
73517;PMS5003;61766;60.318;25.044;2023-08-12T15:51:10;5;4;
73517;PMS5003;61766;60.318;25.044;2023-08-12T15:53:36;4;3;
73517;PMS5003;61766;60.318;25.044;2023-08-12T15:56:02;3;3;
73517;PMS5003;61766;60.318;25.044;2023-08-12T15:58:28;2;1;
73517;PMS5003;61766;60.318;25.044;2023-08-12T16:00:53;4;3;
73517;PMS5003;61766;60.318;25.044;2023-08-12T16:03:19;3;3;
73517;PMS5003;61766;60.318;25.044;2023-08-12T16:05:45;5;3;
73517;PMS5003;61766;60.318;25.044;2023-08-12T16:08:10;4;3;
73517;PMS5003;61766;60.318;25.044;2023-08-12T16:10:36;4;4;
73517;PMS5003;61766;60.318;25.044;2023-08-12T16:13:02;3;3;
73517;PMS5003;61766;60.318;25.044;2023-08-12T16:15:27;3;3;
73517;PMS5003;61766;60.318;25.044;2023-08-12T16:17:53;4;4;
73517;PMS5003;61766;60.318;25.044;2023-08-12T16:20:19;3;3;
73517;PMS5003;61766;60.318;25.044;2023-08-12T16:22:44;3;3;
73517;PMS5003;61766;60.318;25.044;2023-08-12T16:25:10;3;2;
73517;PMS5003;61766;60.318;25.044;2023-08-12T16:27:36;2;2;